Time;durP1;ratioP1;P1;durP2;ratioP2;P2;SDS_P1;SDS_P2;PMS_P1;PMS_P2;Temp;Humidity;BMP_temperature;BMP_pressure;BME280_temperature;BME280_humidity;BME280_pressure;Samples;Min_cycle;Max_cycle;Signal;HPM_P1;HPM_P2
2021/11/09 00:01:56;;;;;;;13.60;3.97;;;;;;;7.03;100.00;102453.09;5018655;28;20041;-30
2021/11/09 00:04:29;;;;;;;9.93;3.22;;;;;;;7.05;100.00;102450.94;5031181;28;20045;-34
2021/11/09 00:07:04;;;;;;;11.20;3.00;;;;;;;7.07;100.00;102440.44;5031507;28;20042;-38
2021/11/09 00:09:44;;;;;;;19.13;3.65;;;;;;;7.06;100.00;102444.31;5031141;28;20045;-32
2021/11/09 00:12:12;;;;;;;17.90;3.88;;;;;;;7.04;100.00;102446.47;5030974;28;20140;-34
2021/11/09 00:14:41;;;;;;;17.33;4.13;;;;;;;7.04;100.00;102442.84;5031204;28;20617;-32
2021/11/09 00:17:09;;;;;;;18.27;4.78;;;;;;;7.02;100.00;102439.47;5031193;28;20063;-34
2021/11/09 00:19:36;;;;;;;16.38;3.88;;;;;;;7.02;100.00;102440.31;5030991;28;20037;-34
2021/11/09 00:22:04;;;;;;;19.27;4.07;;;;;;;7.01;100.00;102441.38;5031022;28;20049;-30
2021/11/09 00:24:32;;;;;;;12.88;3.53;;;;;;;7.00;100.00;102430.53;5030645;28;20060;-32
2021/11/09 00:27:00;;;;;;;16.88;3.90;;;;;;;6.96;100.00;102430.19;5031175;28;20060;-31
2021/11/09 00:29:27;;;;;;;14.45;3.70;;;;;;;6.96;100.00;102419.06;5031209;28;20041;-32
2021/11/09 00:31:56;;;;;;;15.30;3.70;;;;;;;6.98;100.00;102427.16;5030401;28;20057;-33
2021/11/09 00:34:24;;;;;;;16.05;3.70;;;;;;;6.99;100.00;102424.16;5030935;28;20102;-34
2021/11/09 00:36:52;;;;;;;17.73;3.50;;;;;;;6.98;100.00;102419.69;5031117;28;20072;-33
2021/11/09 00:39:20;;;;;;;19.25;3.70;;;;;;;7.01;100.00;102419.19;5030643;28;20045;-34
2021/11/09 00:41:48;;;;;;;17.05;4.95;;;;;;;7.00;100.00;102417.50;5031357;28;20060;-33
2021/11/09 00:44:16;;;;;;;11.63;3.30;;;;;;;6.99;100.00;102421.38;5030778;28;20056;-31
2021/11/09 00:46:44;;;;;;;16.52;3.53;;;;;;;6.99;100.00;102420.53;5030559;28;20034;-31
2021/11/09 00:49:13;;;;;;;21.13;3.95;;;;;;;7.00;100.00;102422.19;5030228;28;20053;-33
2021/11/09 00:51:41;;;;;;;14.00;3.40;;;;;;;6.97;100.00;102418.00;5029814;28;20426;-34
2021/11/09 00:54:09;;;;;;;17.75;4.00;;;;;;;6.94;100.00;102414.84;5030252;28;20395;-34
2021/11/09 00:56:36;;;;;;;16.27;3.45;;;;;;;6.91;100.00;102411.44;5031056;28;20487;-32
2021/11/09 00:59:05;;;;;;;18.50;3.55;;;;;;;6.90;100.00;102411.69;5031057;28;20038;-32
2021/11/09 01:01:33;;;;;;;18.02;4.28;;;;;;;6.86;100.00;102408.53;5030250;28;20088;-32
2021/11/09 01:04:01;;;;;;;16.58;4.00;;;;;;;6.86;100.00;102418.78;5030467;28;20052;-30
2021/11/09 01:06:30;;;;;;;15.52;3.20;;;;;;;6.85;100.00;102411.53;5030278;28;20119;-32
2021/11/09 01:08:58;;;;;;;13.90;3.60;;;;;;;6.83;100.00;102409.00;5030599;28;20080;-32
2021/11/09 01:11:27;;;;;;;13.10;3.58;;;;;;;6.83;100.00;102416.47;5024121;28;20052;-29
2021/11/09 01:13:54;;;;;;;19.70;4.30;;;;;;;6.82;100.00;102412.84;5030059;28;20084;-32
2021/11/09 01:16:23;;;;;;;16.08;3.42;;;;;;;6.79;100.00;102416.13;5030565;28;20037;-30
2021/11/09 01:18:54;;;;;;;14.70;3.72;;;;;;;6.79;100.00;102413.34;5030246;28;20148;-31
2021/11/09 01:21:22;;;;;;;21.42;3.80;;;;;;;6.80;100.00;102403.06;5028230;28;20438;-32
2021/11/09 01:23:54;;;;;;;15.98;3.63;;;;;;;6.78;100.00;102408.03;5034484;28;20049;-31
2021/11/09 01:26:23;;;;;;;13.68;3.00;;;;;;;6.77;100.00;102398.03;5033676;28;20133;-30
2021/11/09 01:28:54;;;;;;;15.18;3.63;;;;;;;6.78;100.00;102405.28;5033940;28;20116;-31
2021/11/09 01:31:22;;;;;;;17.50;3.55;;;;;;;6.80;100.00;102403.06;5034273;28;20053;-35
2021/11/09 01:33:51;;;;;;;17.48;4.03;;;;;;;6.77;100.00;102398.88;5034695;28;20049;-37
2021/11/09 01:36:20;;;;;;;14.90;3.55;;;;;;;6.78;100.00;102395.03;5033680;28;20438;-39
2021/11/09 01:38:48;;;;;;;16.33;3.78;;;;;;;6.77;100.00;102400.81;5033932;28;20061;-36
2021/11/09 01:41:19;;;;;;;15.18;3.72;;;;;;;6.79;100.00;102409.75;5034023;28;20056;-34
2021/11/09 01:43:47;;;;;;;14.30;3.65;;;;;;;6.78;100.00;102403.34;5033726;28;20041;-32
2021/11/09 01:46:16;;;;;;;16.38;3.92;;;;;;;6.75;100.00;102400.19;5034134;28;20096;-32
2021/11/09 01:48:45;;;;;;;18.17;3.72;;;;;;;6.78;100.00;102403.34;5030228;28;20046;-30
2021/11/09 01:51:15;;;;;;;18.58;3.95;;;;;;;6.81;100.00;102399.22;5034069;28;20037;-31
2021/11/09 01:53:45;;;;;;;17.77;4.47;;;;;;;6.82;100.00;102406.47;5033875;28;20487;-31
2021/11/09 01:56:15;;;;;;;16.58;4.05;;;;;;;6.83;100.00;102399.84;5033290;28;20064;-30
2021/11/09 01:58:45;;;;;;;17.63;3.88;;;;;;;6.84;100.00;102405.16;5033778;28;20582;-30
2021/11/09 02:01:16;;;;;;;17.88;4.13;;;;;;;6.83;100.00;102388.75;5034000;28;20045;-34
2021/11/09 02:03:47;;;;;;;18.27;3.70;;;;;;;6.86;100.00;102385.50;5033142;28;20088;-30
2021/11/09 02:06:16;;;;;;;17.42;3.85;;;;;;;6.84;100.00;102395.97;5033964;28;20106;-30
2021/11/09 02:08:44;;;;;;;17.65;3.70;;;;;;;6.88;100.00;102380.56;5033478;28;20141;-30
2021/11/09 02:11:13;;;;;;;15.63;3.97;;;;;;;6.91;100.00;102378.16;5020123;28;20048;-32
2021/11/09 02:13:43;;;;;;;14.70;4.13;;;;;;;6.94;100.00;102381.53;5033614;28;20077;-33
2021/11/09 02:16:13;;;;;;;13.25;3.67;;;;;;;6.99;100.00;102387.22;5033792;28;20765;-31
2021/11/09 02:18:41;;;;;;;14.45;3.80;;;;;;;7.02;100.00;102390.34;5032864;28;20429;-31
2021/11/09 02:21:12;;;;;;;17.38;4.32;;;;;;;7.05;100.00;102384.31;5033604;28;20057;-34
2021/11/09 02:23:43;;;;;;;14.03;4.00;;;;;;;7.07;100.00;102396.03;5033478;28;20069;-32
2021/11/09 02:26:12;;;;;;;14.48;3.40;;;;;;;7.09;100.00;102402.19;5033179;28;20050;-31
2021/11/09 02:28:41;;;;;;;12.80;3.33;;;;;;;7.11;100.00;102397.25;5032915;28;20132;-36
2021/11/09 02:31:09;;;;;;;16.38;3.83;;;;;;;7.14;100.00;102407.03;5032919;28;20049;-30
2021/11/09 02:33:37;;;;;;;16.42;3.78;;;;;;;7.16;100.00;102400.19;5031037;28;20041;-30
2021/11/09 02:36:06;;;;;;;23.52;4.93;;;;;;;7.18;100.00;102397.16;5033385;28;20056;-33
2021/11/09 02:38:35;;;;;;;17.92;4.10;;;;;;;7.18;100.00;102392.47;5032050;28;20049;-30
2021/11/09 02:41:04;;;;;;;15.48;3.70;;;;;;;7.20;100.00;102390.25;5033535;28;20045;-34
2021/11/09 02:43:33;;;;;;;15.30;3.53;;;;;;;7.22;100.00;102384.47;5032634;28;20063;-35
2021/11/09 02:46:27;;;;;;;20.50;4.10;;;;;;;7.22;100.00;102382.53;5032515;28;20056;-31
2021/11/09 02:49:02;;;;;;;14.95;4.15;;;;;;;7.23;100.00;102384.22;5032757;28;20052;-30
2021/11/09 02:51:34;;;;;;;18.40;4.30;;;;;;;7.23;100.00;102384.22;5033249;28;20060;-30
2021/11/09 02:54:06;;;;;;;15.68;3.95;;;;;;;7.26;100.00;102388.47;5032007;28;20067;-31
2021/11/09 02:56:39;;;;;;;12.27;3.80;;;;;;;7.26;100.00;102392.09;5032970;28;20132;-31
2021/11/09 02:59:16;;;;;;;15.35;3.80;;;;;;;7.26;100.00;102389.31;5032440;28;20056;-31
2021/11/09 03:01:50;;;;;;;21.77;5.13;;;;;;;7.28;100.00;102385.44;5023363;28;20048;-31
2021/11/09 03:04:25;;;;;;;19.52;5.32;;;;;;;7.29;100.00;102376.03;5032348;28;20052;-33
2021/11/09 03:06:57;;;;;;;18.55;4.88;;;;;;;7.29;100.00;102376.88;5022244;28;20048;-31
2021/11/09 03:09:37;;;;;;;19.37;4.70;;;;;;;7.30;100.00;102378.56;5032409;28;20427;-33
2021/11/09 03:12:08;;;;;;;15.77;3.95;;;;;;;7.29;100.00;102370.47;5023232;28;20414;-31
2021/11/09 03:14:36;;;;;;;19.98;4.68;;;;;;;7.28;100.00;102377.13;5031816;28;20065;-32
2021/11/09 03:17:12;;;;;;;13.98;4.00;;;;;;;7.31;100.00;102382.19;5032611;28;20491;-31
2021/11/09 03:19:43;;;;;;;17.90;5.15;;;;;;;7.29;100.00;102379.66;5032172;28;20041;-33
2021/11/09 03:44:34;;;;;;;18.05;5.07;;;;;;;7.32;100.00;102389.44;5018010;28;20050;-31
2021/11/09 03:47:04;;;;;;;;;;;;;;;7.29;100.00;102390.75;5032511;28;20520;-33
2021/11/09 03:49:33;;;;;;;24.55;5.47;;;;;;;7.25;100.00;102392.31;5018353;28;19931;-31
2021/11/09 03:52:07;;;;;;;14.52;4.40;;;;;;;7.28;100.00;102397.41;5031939;28;20091;-29
2021/11/09 03:54:35;;;;;;;20.83;5.65;;;;;;;7.20;100.00;102395.81;5031652;28;20364;-30
2021/11/09 03:57:09;;;;;;;21.63;5.05;;;;;;;7.17;100.00;102393.53;5030897;28;20418;-31
2021/11/09 03:59:54;;;;;;;19.73;4.80;;;;;;;7.16;100.00;102394.63;5031930;28;20053;-33
2021/11/09 04:02:30;;;;;;;16.02;5.43;;;;;;;7.15;100.00;102397.63;5026502;28;20049;-32
2021/11/09 04:05:00;;;;;;;17.55;4.93;;;;;;;7.15;100.00;102398.47;5031366;28;20045;-34
2021/11/09 04:07:34;;;;;;;16.23;4.50;;;;;;;7.18;100.00;102400.78;5031565;28;20045;-31
2021/11/09 04:12:56;;;;;;;15.10;3.92;;;;;;;7.25;100.00;102407.06;5031290;28;20053;-30
2021/11/09 04:15:44;;;;;;;20.40;5.40;;;;;;;7.30;100.00;102411.91;5018476;28;20037;-32
2021/11/09 04:18:23;;;;;;;16.83;4.32;;;;;;;7.34;100.00;102406.72;5031137;28;20053;-30
2021/11/09 04:20:59;;;;;;;15.73;4.88;;;;;;;7.38;100.00;102405.16;5031323;28;20131;-33
2021/11/09 04:29:11;;;;;;;19.20;5.10;;;;;;;7.40;100.00;102400.19;5030997;28;20487;-34
2021/11/09 04:41:19;;;;;;;13.57;5.03;;;;;;;7.43;100.00;102385.81;5014018;28;20054;-31
2021/11/09 04:52:33;;;;;;;22.95;5.85;;;;;;;7.47;100.00;102390.66;5021167;28;20129;-30
2021/11/09 05:09:00;;;;;;;16.17;5.18;;;;;;;7.68;100.00;102389.19;5030881;28;20047;-31
2021/11/09 05:11:28;;;;;;;15.35;5.32;;;;;;;7.70;100.00;102395.38;5030841;28;20060;-31
2021/11/09 05:13:56;;;;;;;21.38;5.65;;;;;;;7.69;100.00;102393.66;5028895;28;20501;-36
2021/11/09 05:16:23;;;;;;;17.27;5.63;;;;;;;7.72;100.00;102401.53;5030813;28;20075;-38
2021/11/09 05:18:52;;;;;;;18.95;5.88;;;;;;;7.74;100.00;102401.28;5030528;28;20056;-34
2021/11/09 05:21:20;;;;;;;15.57;5.38;;;;;;;7.74;100.00;102395.72;5030197;28;20038;-33
2021/11/09 05:23:48;;;;;;;22.00;6.35;;;;;;;7.74;100.00;102395.72;5030311;28;20077;-34
2021/11/09 05:26:16;;;;;;;18.95;5.57;;;;;;;7.72;100.00;102401.53;5030796;28;20065;-31
2021/11/09 05:28:45;;;;;;;16.73;5.35;;;;;;;7.72;100.00;102406.25;5029925;28;20053;-32
2021/11/09 05:31:17;;;;;;;21.13;6.20;;;;;;;7.72;100.00;102397.91;5030620;28;20053;-32
2021/11/09 05:33:45;;;;;;;16.20;4.90;;;;;;;7.70;100.00;102392.59;5029783;28;20042;-31
2021/11/09 05:36:15;;;;;;;17.27;5.05;;;;;;;7.74;100.00;102396.56;5030542;28;20515;-34
2021/11/09 05:38:48;;;;;;;16.20;5.85;;;;;;;7.76;100.00;102396.34;5030019;28;20061;-34
2021/11/09 05:41:17;;;;;;;18.75;5.28;;;;;;;7.77;100.00;102398.03;5030209;28;20089;-31
2021/11/09 05:43:45;;;;;;;17.83;5.50;;;;;;;7.81;100.00;102396.44;5030303;28;20050;-32
2021/11/09 05:46:17;;;;;;;19.40;5.80;;;;;;;7.82;100.00;102404.53;5030408;28;20056;-33
2021/11/09 05:48:45;;;;;;;21.70;5.47;;;;;;;7.83;100.00;102400.66;5029738;28;20045;-31
2021/11/09 05:51:14;;;;;;;15.68;5.50;;;;;;;7.85;100.00;102412.38;5030083;28;20432;-31
2021/11/09 05:53:41;;;;;;;16.92;5.60;;;;;;;7.86;100.00;102405.72;5030010;28;20529;-34
2021/11/09 05:56:09;;;;;;;17.65;4.57;;;;;;;7.89;100.00;102413.59;5030009;28;20045;-33
2021/11/09 05:58:37;;;;;;;22.67;5.97;;;;;;;7.90;100.00;102414.44;5030055;28;20049;-31
2021/11/09 06:01:05;;;;;;;22.73;5.57;;;;;;;7.91;100.00;102419.75;5023268;28;20510;-30
2021/11/09 06:03:32;;;;;;;22.88;5.75;;;;;;;7.93;100.00;102417.59;5029504;28;20045;-30
2021/11/09 06:06:00;;;;;;;21.40;7.13;;;;;;;7.94;100.00;102418.44;5029994;28;20038;-32
2021/11/09 06:08:29;;;;;;;17.60;5.97;;;;;;;7.94;100.00;102410.94;5030990;28;20384;-32
2021/11/09 06:10:58;;;;;;;19.80;5.88;;;;;;;7.92;100.00;102413.09;5028183;28;20061;-31
2021/11/09 06:13:26;;;;;;;21.33;5.70;;;;;;;7.95;100.00;102415.41;5033765;28;20068;-31
2021/11/09 06:15:54;;;;;;;23.85;6.18;;;;;;;7.98;100.00;102413.22;5033020;28;20490;-31
2021/11/09 06:18:22;;;;;;;21.77;6.22;;;;;;;7.97;100.00;102417.09;5033410;28;20046;-32
2021/11/09 06:20:50;;;;;;;18.48;5.78;;;;;;;7.98;100.00;102413.22;5032852;28;20041;-34
2021/11/09 06:23:18;;;;;;;18.08;5.88;;;;;;;8.00;100.00;102416.59;5021928;28;20055;-31
2021/11/09 06:25:47;;;;;;;17.02;5.43;;;;;;;8.02;100.00;102415.25;5033041;28;20061;-32
2021/11/09 06:28:17;;;;;;;15.30;5.50;;;;;;;8.04;100.00;102431.69;5033192;28;20041;-31
2021/11/09 06:30:47;;;;;;;17.10;5.50;;;;;;;8.04;100.00;102434.47;5032530;28;20506;-31
2021/11/09 06:33:15;;;;;;;15.02;4.97;;;;;;;8.05;100.00;102436.16;5033597;28;20045;-34
2021/11/09 06:35:43;;;;;;;22.42;5.88;;;;;;;8.05;100.00;102434.22;5033380;28;20063;-32
2021/11/09 06:38:11;;;;;;;16.20;6.00;;;;;;;8.04;100.00;102437.25;5032356;28;20411;-32
2021/11/09 06:40:39;;;;;;;19.65;6.10;;;;;;;8.05;100.00;102450.91;5031548;28;20481;-30
2021/11/09 06:43:08;;;;;;;18.23;5.18;;;;;;;8.04;100.00;102443.66;5032805;28;20414;-32
2021/11/09 06:45:36;;;;;;;20.00;5.72;;;;;;;8.04;100.00;102443.66;5032272;28;20038;-32
2021/11/09 06:48:05;;;;;;;13.18;5.53;;;;;;;8.04;100.00;102457.56;5032690;28;20053;-34
2021/11/09 06:50:33;;;;;;;13.57;5.35;;;;;;;8.03;100.00;102460.56;5019812;28;20034;-33
2021/11/09 06:53:01;;;;;;;20.45;6.05;;;;;;;8.02;100.00;102459.72;5032025;28;20107;-31
2021/11/09 06:55:29;;;;;;;19.40;6.30;;;;;;;8.01;100.00;102463.59;5031284;28;20427;-33
2021/11/09 06:57:57;;;;;;;17.73;6.50;;;;;;;7.99;100.00;102456.63;5032118;28;20075;-34
2021/11/09 07:00:26;;;;;;;17.13;5.70;;;;;;;8.02;100.00;102456.09;5031257;28;20406;-32
2021/11/09 07:02:55;;;;;;;19.95;6.30;;;;;;;8.02;100.00;102453.31;5031315;28;20056;-34
2021/11/09 07:05:23;;;;;;;26.30;7.07;;;;;;;8.04;100.00;102470.63;5030938;28;20056;-37
2021/11/09 07:07:50;;;;;;;14.73;5.47;;;;;;;8.08;100.00;102466.25;5032264;28;20037;-35
2021/11/09 07:10:19;;;;;;;20.42;6.65;;;;;;;8.15;100.00;102467.00;5032706;28;20049;-34
2021/11/09 07:12:47;;;;;;;18.52;6.20;;;;;;;8.16;100.00;102471.47;5031732;28;20045;-33
2021/11/09 07:15:18;;;;;;;25.35;7.75;;;;;;;8.16;100.00;102466.75;5032738;28;20045;-34
2021/11/09 07:17:48;;;;;;;21.77;7.50;;;;;;;8.17;100.00;102464.81;5032543;28;20049;-32
2021/11/09 07:20:18;;;;;;;21.17;7.47;;;;;;;8.21;100.00;102466.00;5031715;28;20085;-32
2021/11/09 07:22:48;;;;;;;19.27;7.10;;;;;;;8.21;100.00;102471.56;5032376;28;20042;-31
2021/11/09 07:25:17;;;;;;;18.88;7.47;;;;;;;8.23;100.00;102469.38;5032292;28;20057;-32
2021/11/09 07:27:46;;;;;;;19.33;8.00;;;;;;;8.27;100.00;102476.16;5030517;28;20434;-32
2021/11/09 07:30:15;;;;;;;20.55;6.85;;;;;;;8.32;100.00;102480.97;5032152;28;20045;-34
2021/11/09 07:32:45;;;;;;;16.73;7.47;;;;;;;8.33;100.00;102478.00;5032027;28;20053;-33
2021/11/09 07:35:16;;;;;;;23.45;7.13;;;;;;;8.35;100.00;102480.53;5031600;28;20067;-32
2021/11/09 07:37:44;;;;;;;20.98;7.63;;;;;;;8.37;100.00;102492.25;5031723;28;20046;-31
2021/11/09 07:40:12;;;;;;;21.75;7.68;;;;;;;8.40;100.00;102486.19;5032221;28;20049;-31
2021/11/09 07:42:47;;;;;;;20.35;7.80;;;;;;;8.45;100.00;102484.38;5031500;28;20099;-36
2021/11/09 07:45:18;;;;;;;20.92;8.32;;;;;;;8.50;100.00;102490.03;5031740;28;20050;-32
2021/11/09 07:47:47;;;;;;;22.58;8.48;;;;;;;8.55;100.00;102492.94;5031437;28;20115;-31
2021/11/09 07:50:17;;;;;;;23.33;8.27;;;;;;;8.58;100.00;102497.19;5031459;28;20064;-32
2021/11/09 07:52:46;;;;;;;20.65;8.95;;;;;;;8.58;100.00;102498.03;5032073;28;20115;-31
2021/11/09 07:55:17;;;;;;;25.33;11.07;;;;;;;8.62;100.00;102504.75;5031162;28;20052;-31
2021/11/09 07:57:50;;;;;;;23.95;10.52;;;;;;;8.66;100.00;102502.34;5018812;28;20064;-33
2021/11/09 08:03:10;;;;;;;27.20;11.07;;;;;;;8.70;100.00;102514.69;5019329;28;20023;-31
2021/11/09 08:05:55;;;;;;;32.20;12.98;;;;;;;8.79;100.00;102512.38;5031264;28;20053;-31
2021/11/09 08:08:26;;;;;;;30.33;13.23;;;;;;;8.86;100.00;102516.69;5020683;28;20064;-31
2021/11/09 08:10:54;;;;;;;33.43;14.23;;;;;;;8.92;100.00;102504.56;5031341;28;20159;-32
2021/11/09 08:13:22;;;;;;;30.83;12.88;;;;;;;8.96;100.00;102508.53;5031347;28;20847;-32
2021/11/09 08:15:50;;;;;;;29.60;13.52;;;;;;;9.04;100.00;102512.00;5030721;28;20057;-32
2021/11/09 08:18:19;;;;;;;26.58;13.90;;;;;;;9.11;100.00;102507.16;5031448;28;20045;-31
2021/11/09 08:21:00;;;;;;;28.67;13.65;;;;;;;9.14;100.00;102510.28;5031177;28;20068;-31
2021/11/09 08:23:28;;;;;;;31.80;13.85;;;;;;;9.19;100.00;102524.28;5030824;28;20053;-31
2021/11/09 08:25:56;;;;;;;35.45;14.82;;;;;;;9.22;100.00;102520.16;5024308;28;20052;-31
2021/11/09 08:28:24;;;;;;;28.42;14.45;;;;;;;9.27;100.00;102511.91;5031427;28;20045;-33
2021/11/09 08:30:55;;;;;;;29.27;13.85;;;;;;;9.31;100.00;102511.16;5029801;28;20675;-32
2021/11/09 08:33:25;;;;;;;30.00;14.35;;;;;;;9.34;100.00;102512.59;5031147;28;20055;-34
2021/11/09 08:35:54;;;;;;;23.38;12.77;;;;;;;9.39;100.00;102511.84;5030742;28;20528;-32
2021/11/09 08:38:24;;;;;;;31.58;14.05;;;;;;;9.41;100.00;102501.28;5030437;28;20645;-34
2021/11/09 08:40:53;;;;;;;26.50;13.27;;;;;;;9.44;100.00;102498.84;5030142;28;20049;-34
2021/11/09 08:43:25;;;;;;;28.60;13.10;;;;;;;9.46;100.00;102498.59;5030024;28;20411;-31
2021/11/09 08:45:57;;;;;;;26.45;12.57;;;;;;;9.47;100.00;102501.13;5030062;28;20392;-31
2021/11/09 08:48:27;;;;;;;26.73;12.10;;;;;;;9.49;100.00;102507.28;5031170;28;20067;-36
2021/11/09 08:50:55;;;;;;;25.33;12.07;;;;;;;9.50;100.00;102508.13;5030147;28;20454;-33
2021/11/09 08:53:29;;;;;;;28.98;13.18;;;;;;;9.54;100.00;102510.19;5029870;28;20063;-36
2021/11/09 08:56:17;;;;;;;17.90;10.35;;;;;;;9.60;100.00;102514.72;5030607;28;20053;-32
2021/11/09 09:04:25;;;;;;;28.50;13.05;;;;;;;9.64;100.00;102515.06;5030528;28;20137;-38
2021/11/09 09:06:55;;;;;;;25.88;12.73;;;;;;;9.68;100.00;102525.47;5026887;28;20449;-36
2021/11/09 09:09:24;;;;;;;31.92;13.52;;;;;;;9.71;100.00;102520.50;5030758;28;20045;-31
2021/11/09 09:11:53;;;;;;;33.38;13.68;;;;;;;9.75;100.00;102518.91;5029804;28;20041;-30
2021/11/09 09:14:22;;;;;;;31.08;13.38;;;;;;;9.75;100.00;102522.53;5030974;28;20049;-32
2021/11/09 09:16:50;;;;;;;25.35;12.50;;;;;;;9.79;100.00;102514.50;5030322;28;20054;-30
2021/11/09 09:19:24;;;;;;;29.25;14.18;;;;;;;9.82;100.00;102528.75;5030255;28;20059;-32
2021/11/09 09:22:00;;;;;;;30.02;13.95;;;;;;;9.83;100.00;102532.38;5030141;28;20601;-34
2021/11/09 09:24:37;;;;;;;28.10;13.48;;;;;;;9.84;100.00;102526.56;5021328;28;20123;-33
2021/11/09 09:27:15;;;;;;;22.58;11.90;;;;;;;9.86;100.00;102529.09;5029604;28;20142;-33
2021/11/09 09:29:51;;;;;;;27.63;14.30;;;;;;;9.86;100.00;102529.09;5030964;28;20049;-31
2021/11/09 09:32:38;;;;;;;35.05;15.32;;;;;;;9.88;100.00;102526.91;5029723;28;20053;-31
2021/11/09 09:54:43;;;;;;;26.45;11.98;;;;;;;10.09;100.00;102542.88;5033507;28;20312;-32
2021/11/09 09:57:15;;;;;;;29.88;13.10;;;;;;;10.16;100.00;102549.13;5033804;28;20107;-32
2021/11/09 09:59:46;;;;;;;22.15;11.73;;;;;;;10.20;100.00;102549.47;5034234;28;20057;-33
2021/11/09 10:02:17;;;;;;;21.90;12.38;;;;;;;10.26;100.00;102552.09;5033215;28;20046;-34
2021/11/09 10:04:49;;;;;;;21.10;12.63;;;;;;;10.33;100.00;102549.97;5034061;28;20115;-31
2021/11/09 10:07:28;;;;;;;19.33;10.75;;;;;;;10.40;100.00;102549.78;5033431;28;20400;-31
2021/11/09 10:09:57;;;;;;;16.60;9.50;;;;;;;10.47;100.00;102549.59;5033016;28;20060;-31
2021/11/09 10:12:31;;;;;;;18.52;10.52;;;;;;;10.51;100.00;102546.03;5033504;28;20053;-32
2021/11/09 10:15:01;;;;;;;18.52;9.70;;;;;;;10.56;100.00;102543.34;5033661;28;20057;-32
2021/11/09 10:17:30;;;;;;;16.83;9.85;;;;;;;10.60;100.00;102547.28;5033465;28;20068;-33
2021/11/09 10:19:59;;;;;;;16.33;9.90;;;;;;;10.65;100.00;102547.34;5033509;28;20079;-31
2021/11/09 10:22:29;;;;;;;15.85;8.48;;;;;;;10.69;100.00;102558.84;5032631;28;20148;-31
2021/11/09 10:25:01;;;;;;;17.75;8.50;;;;;;;10.71;100.00;102551.06;5033531;28;20426;-33
2021/11/09 10:27:32;;;;;;;14.80;7.72;;;;;;;10.69;100.00;102550.47;5033323;28;20497;-35
2021/11/09 10:30:04;;;;;;;17.37;8.13;;;;;;;10.74;100.00;102541.31;5032821;28;20045;-35
2021/11/09 10:32:32;;;;;;;;;;;;;;;10.70;100.00;102549.38;5033637;28;20045;-32
2021/11/09 10:35:02;;;;;;;11.82;6.30;;;;;;;10.72;100.00;102543.53;5033187;28;19921;-37
2021/11/09 10:37:32;;;;;;;12.95;7.50;;;;;;;10.78;100.00;102546.13;5032369;28;20479;-32
2021/11/09 10:40:18;;;;;;;15.98;7.68;;;;;;;10.82;100.00;102552.88;5033070;28;20056;-32
2021/11/09 10:42:50;;;;;;;18.38;9.25;;;;;;;10.82;100.00;102541.69;5033022;28;20064;-36
2021/11/09 10:45:19;;;;;;;14.87;7.47;;;;;;;10.85;100.00;102543.97;5032283;28;20061;-32
2021/11/09 10:47:49;;;;;;;20.10;8.38;;;;;;;10.86;100.00;102545.66;5033241;28;20051;-31
2021/11/09 10:50:22;;;;;;;18.25;9.68;;;;;;;10.89;100.00;102539.56;5028790;28;20049;-34
2021/11/09 10:53:01;;;;;;;16.65;8.30;;;;;;;10.90;100.00;102537.63;5032853;28;20045;-31
2021/11/09 10:55:34;;;;;;;10.50;6.00;;;;;;;10.93;100.00;102537.09;5032188;28;20069;-29
2021/11/09 11:03:16;;;;;;;9.60;5.28;;;;;;;11.01;100.00;102536.63;5029581;28;20053;-31
2021/11/09 11:04:03;;;;;;;10.02;6.15;;;;;;;11.00;100.00;102529.34;5032541;28;20047;-31
2021/11/09 11:06:32;;;;;;;12.88;5.95;;;;;;;11.02;100.00;102514.03;5027622;28;20041;-33
2021/11/09 11:09:16;;;;;;;11.25;6.00;;;;;;;11.05;100.00;102519.09;5032210;28;20128;-30
2021/11/09 11:12:05;;;;;;;16.52;6.20;;;;;;;11.03;100.00;102526.88;5032109;28;20046;-33
2021/11/09 11:14:37;;;;;;;16.13;7.15;;;;;;;11.09;100.00;102525.00;5032174;28;20041;-33
2021/11/09 11:17:07;;;;;;;11.55;6.50;;;;;;;11.10;100.00;102518.31;5032565;28;20457;-32
2021/11/09 11:19:38;;;;;;;13.98;6.55;;;;;;;11.17;100.00;102540.47;5031744;28;20473;-33
2021/11/09 11:22:07;;;;;;;14.10;6.93;;;;;;;11.18;100.00;102520.66;5032483;28;20045;-30
2021/11/09 11:24:38;;;;;;;9.73;5.70;;;;;;;11.24;100.00;102527.94;5030838;28;20052;-32
2021/11/09 11:27:07;;;;;;;16.00;7.82;;;;;;;11.28;100.00;102519.88;5031805;28;20085;-33
2021/11/09 11:29:37;;;;;;;12.15;7.00;;;;;;;11.28;100.00;102505.91;5032107;28;20049;-32
2021/11/09 11:32:08;;;;;;;15.02;6.72;;;;;;;11.33;100.00;102501.22;5025359;28;20603;-31
2021/11/09 11:34:37;;;;;;;15.27;6.28;;;;;;;11.36;100.00;102513.84;5031372;28;20495;-33
2021/11/09 11:37:06;;;;;;;15.25;6.72;;;;;;;11.40;100.00;102495.41;5032180;28;20049;-34
2021/11/09 11:39:36;;;;;;;10.77;6.25;;;;;;;11.40;100.00;102504.63;5031037;28;20091;-32
2021/11/09 11:42:08;;;;;;;12.57;6.15;;;;;;;11.42;100.00;102509.97;5029321;28;20115;-31
2021/11/09 11:44:41;;;;;;;14.30;6.53;;;;;;;11.47;100.00;102500.78;5032110;28;20068;-31
2021/11/09 11:47:17;;;;;;;11.50;6.10;;;;;;;11.47;100.00;102504.44;5031019;28;20094;-30
2021/11/09 11:49:49;;;;;;;15.85;6.22;;;;;;;11.51;100.00;102499.16;5031583;28;20136;-31
2021/11/09 11:52:24;;;;;;;15.07;7.30;;;;;;;11.52;100.00;102506.44;5031869;28;20046;-32
2021/11/09 11:54:59;;;;;;;15.95;7.45;;;;;;;11.53;100.00;102497.78;5030058;28;20048;-32
2021/11/09 11:57:44;;;;;;;10.70;6.57;;;;;;;11.55;100.00;102503.97;5031453;28;20045;-33
2021/11/09 12:00:45;;;;;;;13.35;6.57;;;;;;;11.57;100.00;102495.31;5030442;28;20529;-32
2021/11/09 12:03:35;;;;;;;16.83;7.03;;;;;;;11.55;100.00;102500.31;5025594;28;20049;-32
2021/11/09 12:06:20;;;;;;;17.98;7.25;;;;;;;11.56;100.00;102493.63;5017923;28;20041;-30
2021/11/09 12:08:51;;;;;;;16.83;6.45;;;;;;;11.56;100.00;102490.81;5031061;28;20140;-32
2021/11/09 12:11:41;;;;;;;18.27;7.93;;;;;;;11.60;100.00;102483.56;5031625;28;20403;-31
2021/11/09 12:14:15;;;;;;;18.88;7.38;;;;;;;11.58;100.00;102486.66;5031268;28;20044;-33
2021/11/09 12:16:52;;;;;;;13.68;7.00;;;;;;;11.59;100.00;102499.50;5030883;28;20091;-34
2021/11/09 12:20:01;;;;;;;15.15;7.85;;;;;;;11.60;100.00;102480.78;5030963;28;20053;-32
2021/11/09 12:22:44;;;;;;;14.80;6.95;;;;;;;11.59;100.00;102484.72;5030788;28;20045;-32
2021/11/09 12:25:16;;;;;;;12.88;7.40;;;;;;;11.62;100.00;102478.56;5031143;28;20049;-32
2021/11/09 12:28:06;;;;;;;15.02;6.82;;;;;;;11.69;100.00;102484.78;5031344;28;20053;-34
2021/11/09 12:30:42;;;;;;;19.73;8.18;;;;;;;11.68;100.00;102486.72;5020146;28;20136;-34
2021/11/09 12:33:14;;;;;;;19.30;8.27;;;;;;;11.70;100.00;102483.66;5031093;28;20049;-32
2021/11/09 12:36:18;;;;;;;18.80;7.90;;;;;;;11.68;100.00;102488.69;5021046;28;20050;-34
2021/11/09 12:38:49;;;;;;;19.75;8.93;;;;;;;11.66;100.00;102479.72;5030056;28;20049;-34
2021/11/09 12:41:18;;;;;;;18.17;9.55;;;;;;;11.62;100.00;102481.34;5031156;28;20054;-32
2021/11/09 12:43:48;;;;;;;18.15;8.98;;;;;;;11.62;100.00;102498.13;5030280;28;20475;-32
2021/11/09 12:46:27;;;;;;;24.25;9.70;;;;;;;11.58;100.00;102480.22;5031007;28;20136;-33
2021/11/09 12:49:00;;;;;;;19.23;9.63;;;;;;;11.59;100.00;102474.34;5031055;28;20053;-32
2021/11/09 12:51:30;;;;;;;21.85;10.30;;;;;;;11.59;100.00;102479.94;5030965;28;20410;-35
2021/11/09 12:54:03;;;;;;;24.75;10.65;;;;;;;11.56;100.00;102480.50;5030495;28;20046;-32
2021/11/09 12:56:34;;;;;;;25.10;11.55;;;;;;;11.55;100.00;102486.34;5030849;28;20081;-33
2021/11/09 12:59:07;;;;;;;19.58;9.95;;;;;;;11.54;100.00;102477.09;5030095;28;20049;-30
2021/11/09 13:04:29;;;;;;;23.40;9.98;;;;;;;11.51;100.00;102474.84;5025450;28;20049;-32
2021/11/09 13:07:05;;;;;;;28.17;11.20;;;;;;;11.52;100.00;102484.06;5030769;28;20560;-32
2021/11/09 13:09:37;;;;;;;19.90;10.40;;;;;;;11.51;100.00;102471.19;5030630;28;20562;-32
2021/11/09 13:12:08;;;;;;;22.40;9.95;;;;;;;11.46;100.00;102480.38;5030468;28;20394;-32